Lyme Center, New Hampshire
Current Conditions -  °F | °C
As of 3:53 PM on Tuesday 25 Nov 2014 (Local Time) from KLEB Reporting Station
Clear Clear  
Wind Chill: 45°   Ceiling: Unl
Heat Index: 49°   Visibility: 10mi
Dew Point: 25°   Wind: 8mph
Humidity: 39%   Direction: 220°SW
Pressure: 29.91"   Gusts: NA
Location:  43.8°N, 72.12°W
Report Text: KLEB 252053Z 22007KT 190V260 10SM CLR 09/M04 A2991 RMK AO2 SLP126 T00941039 53018
Loading
Personal Weather Stations






























Interactive Weather Map New forecast layout! Learn more

10-Day Weather Forecast

Advertisements
Track Severe Weather on mobile